createdAt,value
2019-03-24T00:01:40.666Z,100794.59
2019-03-24T00:04:06.433Z,100796.73
2019-03-24T00:06:38.083Z,100801.91
2019-03-24T00:09:09.507Z,100794.69
2019-03-24T00:11:40.842Z,100795.31
2019-03-24T00:14:12.299Z,100792.91
2019-03-24T00:16:43.865Z,100799.42
2019-03-24T00:19:15.791Z,100793.62
2019-03-24T00:21:47.393Z,100795.41
2019-03-24T00:24:19.335Z,100793.72
2019-03-24T00:26:50.675Z,100788.31
2019-03-24T00:29:22.123Z,100792.44
2019-03-24T00:31:53.681Z,100787.75
2019-03-24T00:34:25.343Z,100793.96
2019-03-24T00:36:56.675Z,100793.81
2019-03-24T00:39:28.331Z,100792.38
2019-03-24T00:41:59.743Z,100789.08
2019-03-24T00:44:31.317Z,100789.52
2019-03-24T00:47:02.660Z,100791.48
2019-03-24T00:49:34.078Z,100781.45
2019-03-24T00:52:05.801Z,100777.27
2019-03-24T00:54:37.397Z,100770.55
2019-03-24T00:57:08.963Z,100774.78
2019-03-24T00:59:40.327Z,100772.16
2019-03-24T01:02:12.152Z,100780.50
2019-03-24T01:04:43.691Z,100768.42
2019-03-24T01:07:15.328Z,100768.46
2019-03-24T01:09:46.778Z,100763.34
2019-03-24T01:12:18.161Z,100760.13
2019-03-24T01:14:49.780Z,100759.36
2019-03-24T01:17:22.384Z,100750.33
2019-03-24T01:19:53.807Z,100750.90
2019-03-24T01:22:26.493Z,100751.09
2019-03-24T01:24:57.913Z,100741.06
2019-03-24T01:27:29.332Z,100742.84
2019-03-24T01:30:01.033Z,100749.33
2019-03-24T01:32:32.529Z,100744.48
2019-03-24T01:35:04.763Z,100741.30
2019-03-24T01:37:36.275Z,100745.76
2019-03-24T01:40:07.742Z,100744.70
2019-03-24T01:42:40.088Z,100739.61
2019-03-24T01:45:12.769Z,100742.75
2019-03-24T01:47:44.134Z,100734.97
2019-03-24T01:50:15.519Z,100736.20
2019-03-24T01:52:46.806Z,100738.42
2019-03-24T01:55:18.105Z,100731.77
2019-03-24T01:57:49.705Z,100729.92
2019-03-24T02:00:21.009Z,100728.92
2019-03-24T02:02:52.533Z,100730.77
2019-03-24T02:05:24.152Z,100722.58
2019-03-24T02:07:55.444Z,100720.56
2019-03-24T02:10:26.836Z,100714.37
2019-03-24T02:12:58.433Z,100715.08
2019-03-24T02:15:30.096Z,100716.77
2019-03-24T02:18:01.711Z,100710.93
2019-03-24T02:20:33.518Z,100709.76
2019-03-24T02:23:04.896Z,100708.58
2019-03-24T02:25:36.775Z,100708.36
2019-03-24T02:28:08.061Z,100712.16
2019-03-24T02:30:39.958Z,100713.07
2019-03-24T02:33:11.826Z,100711.05
2019-03-24T02:35:43.446Z,100710.72
2019-03-24T02:38:14.751Z,100711.94
2019-03-24T02:40:46.530Z,100715.87
2019-03-24T02:43:18.133Z,100715.23
2019-03-24T02:45:50.530Z,100715.47
2019-03-24T02:48:22.299Z,100712.70
2019-03-24T02:50:53.881Z,100720.50
2019-03-24T02:53:26.142Z,100713.88
2019-03-24T02:55:57.984Z,100713.55
2019-03-24T02:58:29.577Z,100718.08
2019-03-24T03:01:01.532Z,100718.37
2019-03-24T03:03:33.099Z,100718.55
2019-03-24T03:06:04.901Z,100705.98
2019-03-24T03:08:36.466Z,100707.38
2019-03-24T03:11:08.437Z,100704.66
2019-03-24T03:13:39.821Z,100706.09
2019-03-24T03:16:11.203Z,100700.17
2019-03-24T03:18:42.566Z,100696.69
2019-03-24T03:21:14.460Z,100695.24
2019-03-24T03:23:46.268Z,100701.37
2019-03-24T03:26:18.741Z,100698.70
2019-03-24T03:28:51.302Z,100704.51
2019-03-24T03:31:22.640Z,100705.80
2019-03-24T03:33:54.212Z,100699.66
2019-03-24T03:36:26.571Z,100695.91
2019-03-24T03:38:58.885Z,100694.18
2019-03-24T03:41:30.937Z,100694.03
2019-03-24T03:44:02.288Z,100686.50
2019-03-24T03:46:33.872Z,100689.18
2019-03-24T03:49:05.896Z,100689.98
2019-03-24T03:51:38.322Z,100683.16
2019-03-24T03:54:09.865Z,100679.77
2019-03-24T03:56:42.286Z,100673.48
2019-03-24T03:59:14.062Z,100670.58
2019-03-24T04:01:45.376Z,100673.19
2019-03-24T04:04:17.196Z,100667.71
2019-03-24T04:06:48.749Z,100661.91
2019-03-24T04:09:20.049Z,100670.10
2019-03-24T04:11:51.361Z,100662.16
2019-03-24T04:14:22.654Z,100663.85
2019-03-24T04:17:06.085Z,100659.22
2019-03-24T04:19:28.069Z,100659.11
2019-03-24T04:21:59.373Z,100657.53
2019-03-24T04:24:31.028Z,100660.14
2019-03-24T04:27:02.356Z,100667.94
2019-03-24T04:29:33.967Z,100656.76
2019-03-24T04:32:05.289Z,100658.53
2019-03-24T04:34:36.895Z,100665.52
2019-03-24T04:37:08.626Z,100665.84
2019-03-24T04:39:39.922Z,100661.61
2019-03-24T04:42:11.260Z,100667.34
2019-03-24T04:44:43.067Z,100666.42
2019-03-24T04:47:16.845Z,100665.95
2019-03-24T04:49:48.361Z,100663.38
2019-03-24T04:52:19.673Z,100669.55
2019-03-24T04:54:50.984Z,100669.73
2019-03-24T04:57:22.868Z,100672.13
2019-03-24T04:59:54.175Z,100674.06
2019-03-24T05:02:25.811Z,100672.49
2019-03-24T05:04:57.352Z,100670.13
2019-03-24T05:07:28.967Z,100674.87
2019-03-24T05:10:01.020Z,100675.68
2019-03-24T05:12:33.316Z,100678.66
2019-03-24T05:15:04.781Z,100678.73
2019-03-24T05:17:36.257Z,100670.64
2019-03-24T05:20:07.714Z,100674.72
2019-03-24T05:22:40.229Z,100671.49
2019-03-24T05:25:11.709Z,100665.98
2019-03-24T05:27:44.346Z,100670.24
2019-03-24T05:30:15.723Z,100671.31
2019-03-24T05:32:47.257Z,100664.66
2019-03-24T05:35:18.805Z,100664.55
2019-03-24T05:37:50.345Z,100665.29
2019-03-24T05:40:21.902Z,100663.19
2019-03-24T05:42:53.226Z,100661.81
2019-03-24T05:45:24.534Z,100658.27
2019-03-24T05:47:56.076Z,100657.44
2019-03-24T05:50:27.609Z,100655.19
2019-03-24T05:52:58.934Z,100662.67
2019-03-24T05:55:30.285Z,100664.69
2019-03-24T05:58:02.809Z,100663.45
2019-03-24T06:00:34.407Z,100669.36
2019-03-24T06:03:06.091Z,100668.75
2019-03-24T06:05:37.402Z,100672.58
2019-03-24T06:08:08.714Z,100668.83
2019-03-24T06:10:40.275Z,100670.20
2019-03-24T06:13:11.935Z,100670.15
2019-03-24T06:15:43.744Z,100662.19
2019-03-24T06:18:15.275Z,100674.19
2019-03-24T06:20:46.574Z,100676.84
2019-03-24T06:23:17.884Z,100677.19
2019-03-24T06:25:49.471Z,100678.88
2019-03-24T06:28:21.271Z,100683.38
2019-03-24T06:30:52.575Z,100685.52
2019-03-24T06:33:24.208Z,100679.77
2019-03-24T06:35:55.996Z,100684.09
2019-03-24T06:38:27.292Z,100685.06
2019-03-24T06:40:58.814Z,100687.69
2019-03-24T06:43:30.516Z,100684.80
2019-03-24T06:46:02.026Z,100680.90
2019-03-24T06:48:33.634Z,100692.24
2019-03-24T06:51:05.004Z,100680.34
2019-03-24T06:53:37.278Z,100672.25
2019-03-24T06:56:08.596Z,100673.50
2019-03-24T06:58:40.453Z,100681.77
2019-03-24T07:01:11.915Z,100683.96
2019-03-24T07:03:43.315Z,100681.63
2019-03-24T07:06:14.943Z,100680.04
2019-03-24T07:08:46.497Z,100680.44
2019-03-24T07:11:17.900Z,100680.04
2019-03-24T07:13:49.688Z,100679.55
2019-03-24T07:16:21.064Z,100678.11
2019-03-24T07:18:52.358Z,100686.50
2019-03-24T07:21:23.660Z,100689.90
2019-03-24T07:23:55.021Z,100687.48
2019-03-24T07:26:26.552Z,100685.53
2019-03-24T07:28:57.955Z,100678.28
2019-03-24T07:31:29.332Z,100680.36
2019-03-24T07:34:00.802Z,100683.63
2019-03-24T07:36:32.116Z,100677.36
2019-03-24T07:39:05.152Z,100680.77
2019-03-24T07:41:36.457Z,100680.41
2019-03-24T07:44:07.824Z,100681.19
2019-03-24T07:46:39.359Z,100682.32
2019-03-24T07:49:10.873Z,100688.53
2019-03-24T07:51:42.719Z,100676.81
2019-03-24T07:54:15.072Z,100683.80
2019-03-24T07:56:46.389Z,100681.54
2019-03-24T07:59:19.033Z,100682.48
2019-03-24T08:01:50.829Z,100680.98
2019-03-24T08:04:22.125Z,100676.64
2019-03-24T08:06:54.524Z,100677.91
2019-03-24T08:09:25.811Z,100676.74
2019-03-24T08:11:57.382Z,100677.23
2019-03-24T08:14:29.629Z,100678.92
2019-03-24T08:17:01.174Z,100677.33
2019-03-24T08:19:32.717Z,100670.95
2019-03-24T08:22:04.346Z,100663.47
2019-03-24T08:24:35.714Z,100658.31
2019-03-24T08:27:07.393Z,100647.75
2019-03-24T08:29:38.947Z,100654.27
2019-03-24T08:32:10.475Z,100648.78
2019-03-24T08:34:41.765Z,100646.67
2019-03-24T08:37:13.377Z,100646.11
2019-03-24T08:39:44.594Z,100642.56
2019-03-24T08:42:16.130Z,100642.57
2019-03-24T08:44:47.496Z,100639.96
2019-03-24T08:47:18.824Z,100631.73
2019-03-24T08:49:50.433Z,100629.22
2019-03-24T08:52:22.041Z,100630.48
2019-03-24T08:54:53.560Z,100618.33
2019-03-24T08:57:24.876Z,100611.65
2019-03-24T08:59:56.441Z,100614.22
2019-03-24T09:02:28.053Z,100610.41
2019-03-24T09:04:59.650Z,100613.14
2019-03-24T09:07:30.970Z,100611.09
2019-03-24T09:10:02.544Z,100603.77
2019-03-24T09:12:33.884Z,100600.23
2019-03-24T09:15:05.899Z,100610.49
2019-03-24T09:17:37.429Z,100604.02
2019-03-24T09:20:09.408Z,100596.45
2019-03-24T09:22:41.005Z,100598.56
2019-03-24T09:25:13.031Z,100598.90
2019-03-24T09:27:44.614Z,100600.28
2019-03-24T09:30:29.194Z,100595.92
2019-03-24T09:33:00.643Z,100594.38
2019-03-24T09:35:32.145Z,100597.98
2019-03-24T09:38:03.628Z,100598.19
2019-03-24T09:40:35.218Z,100594.17
2019-03-24T09:43:06.946Z,100589.25
2019-03-24T09:45:38.550Z,100585.81
2019-03-24T09:48:10.222Z,100576.89
2019-03-24T09:50:41.758Z,100574.05
2019-03-24T09:53:13.423Z,100572.20
2019-03-24T09:55:44.720Z,100571.12
2019-03-24T09:58:16.052Z,100567.77
2019-03-24T10:00:48.108Z,100568.98
2019-03-24T10:03:19.413Z,100575.30
2019-03-24T10:05:50.798Z,100565.50
2019-03-24T10:08:22.121Z,100570.53
2019-03-24T10:10:53.584Z,100568.16
2019-03-24T10:13:24.906Z,100581.00
2019-03-24T10:15:56.625Z,100572.18
2019-03-24T10:18:28.186Z,100579.87
2019-03-24T10:20:59.787Z,100574.52
2019-03-24T10:23:31.824Z,100573.53
2019-03-24T10:26:03.468Z,100565.68
2019-03-24T10:28:35.267Z,100565.08
2019-03-24T10:31:06.918Z,100569.89
2019-03-24T10:33:38.536Z,100571.03
2019-03-24T10:36:09.844Z,100562.87
2019-03-24T10:38:41.466Z,100561.89
2019-03-24T10:41:12.999Z,100551.02
2019-03-24T10:43:44.805Z,100554.98
2019-03-24T10:46:16.390Z,100545.56
2019-03-24T10:48:48.234Z,100554.86
2019-03-24T10:51:19.961Z,100543.72
2019-03-24T10:53:51.290Z,100543.72
2019-03-24T10:56:22.921Z,100547.00
2019-03-24T10:58:54.476Z,100543.34
2019-03-24T11:01:26.039Z,100546.73
2019-03-24T11:03:57.718Z,100547.00
2019-03-24T11:06:29.262Z,100540.77
2019-03-24T11:09:00.578Z,100544.06
2019-03-24T11:11:31.966Z,100535.59
2019-03-24T11:14:04.982Z,100533.19
2019-03-24T11:16:36.365Z,100529.69
2019-03-24T11:19:07.760Z,100525.85
2019-03-24T11:21:57.390Z,100517.34
2019-03-24T11:24:29.785Z,100515.00
2019-03-24T11:27:02.362Z,100513.38
2019-03-24T11:29:34.652Z,100506.44
2019-03-24T11:32:06.023Z,100516.17
2019-03-24T11:34:37.340Z,100507.38
2019-03-24T11:37:08.744Z,100512.33
2019-03-24T11:39:40.055Z,100511.22
2019-03-24T11:42:11.358Z,100509.14
2019-03-24T11:44:42.664Z,100501.17
2019-03-24T11:47:13.978Z,100503.09
2019-03-24T11:49:49.190Z,100502.34
2019-03-24T11:52:20.546Z,100498.99
2019-03-24T11:54:52.082Z,100501.40
2019-03-24T11:57:24.354Z,100495.11
2019-03-24T11:59:55.674Z,100495.80
2019-03-24T12:02:27.221Z,100491.47
2019-03-24T12:04:58.530Z,100486.02
2019-03-24T12:07:30.697Z,100489.20
2019-03-24T12:10:02.018Z,100486.16
2019-03-24T12:12:33.340Z,100488.81
2019-03-24T12:15:05.489Z,100483.48
2019-03-24T12:17:37.412Z,100480.09
2019-03-24T12:20:09.237Z,100476.36
2019-03-24T12:22:40.874Z,100482.57
2019-03-24T12:25:12.249Z,100474.16
2019-03-24T12:27:43.873Z,100469.67
2019-03-24T12:30:15.480Z,100477.61
2019-03-24T12:32:47.021Z,100470.46
2019-03-24T12:35:18.554Z,100466.48
2019-03-24T12:37:50.275Z,100463.67
2019-03-24T12:40:21.583Z,100462.66
2019-03-24T12:42:52.985Z,100472.84
2019-03-24T12:45:24.356Z,100461.02
2019-03-24T12:47:56.652Z,100464.56
2019-03-24T12:50:31.574Z,100457.03
2019-03-24T12:53:02.173Z,100454.71
2019-03-24T12:55:33.542Z,100449.61
2019-03-24T12:58:05.238Z,100444.03
2019-03-24T13:00:39.203Z,100441.27
2019-03-24T13:03:10.661Z,100441.06
2019-03-24T13:05:42.313Z,100436.93
2019-03-24T13:08:18.070Z,100438.72
2019-03-24T13:10:51.505Z,100447.37
2019-03-24T13:13:22.924Z,100453.54
2019-03-24T13:15:54.934Z,100453.31
2019-03-24T13:18:26.553Z,100445.30
2019-03-24T13:20:58.181Z,100443.82
2019-03-24T13:23:30.021Z,100445.42
2019-03-24T13:26:01.549Z,100448.53
2019-03-24T13:28:33.121Z,100451.42
2019-03-24T13:31:04.579Z,100446.73
2019-03-24T13:33:35.905Z,100449.59
2019-03-24T13:36:12.821Z,100445.76
2019-03-24T13:38:44.201Z,100449.88
2019-03-24T13:41:15.805Z,100446.55
2019-03-24T13:43:47.424Z,100450.50
2019-03-24T13:46:19.108Z,100440.50
2019-03-24T13:48:50.641Z,100436.39
2019-03-24T13:51:22.044Z,100435.78
2019-03-24T13:53:53.964Z,100434.33
2019-03-24T13:56:25.539Z,100431.88
2019-03-24T13:58:58.626Z,100435.55
2019-03-24T14:01:30.437Z,100433.28
2019-03-24T14:04:01.901Z,100427.83
2019-03-24T14:06:33.931Z,100431.58
2019-03-24T14:09:09.577Z,100433.24
2019-03-24T14:11:41.195Z,100438.69
2019-03-24T14:14:12.518Z,100429.23
2019-03-24T14:16:46.396Z,100428.61
2019-03-24T14:19:17.536Z,100423.77
2019-03-24T14:21:59.172Z,100425.01
2019-03-24T14:24:36.137Z,100423.96
2019-03-24T14:27:21.121Z,100428.62
2019-03-24T14:30:02.812Z,100428.19
2019-03-24T14:32:49.524Z,100425.48
2019-03-24T14:35:24.657Z,100420.11
2019-03-24T14:37:56.235Z,100412.37
2019-03-24T14:40:27.765Z,100416.73
2019-03-24T14:42:59.295Z,100422.06
2019-03-24T14:45:30.845Z,100410.22
2019-03-24T14:48:02.247Z,100415.42
2019-03-24T14:50:34.598Z,100424.41
2019-03-24T14:53:07.942Z,100419.82
2019-03-24T14:55:39.559Z,100417.47
2019-03-24T14:58:11.478Z,100414.98
2019-03-24T15:00:43.694Z,100408.35
2019-03-24T15:03:15.077Z,100414.16
2019-03-24T15:05:46.917Z,100405.67
2019-03-24T15:08:18.584Z,100410.17
2019-03-24T15:10:50.081Z,100410.73
2019-03-24T15:13:21.781Z,100410.30
2019-03-24T15:15:53.764Z,100414.22
2019-03-24T15:18:25.554Z,100409.51
2019-03-24T15:21:05.737Z,100414.44
2019-03-24T15:23:30.840Z,100414.68
2019-03-24T15:26:02.703Z,100419.77
2019-03-24T15:28:34.322Z,100411.95
2019-03-24T15:31:05.649Z,100416.06
2019-03-24T15:33:37.294Z,100420.20
2019-03-24T15:36:20.350Z,100409.28
2019-03-24T15:38:52.400Z,100408.06
2019-03-24T15:41:23.718Z,100409.14
2019-03-24T15:43:55.322Z,100406.77
2019-03-24T15:46:28.182Z,100408.62
2019-03-24T15:48:59.447Z,100417.98
2019-03-24T15:51:31.081Z,100415.48
2019-03-24T15:54:02.385Z,100408.06
2019-03-24T15:56:33.920Z,100417.19
2019-03-24T15:59:05.310Z,100420.62
2019-03-24T16:01:39.773Z,100426.95
2019-03-24T16:04:17.907Z,100423.83
2019-03-24T16:06:55.164Z,100429.13
2019-03-24T16:09:42.007Z,100437.34
2019-03-24T16:12:25.215Z,100428.41
2019-03-24T16:14:57.641Z,100412.12
2019-03-24T16:17:29.247Z,100412.12
2019-03-24T16:20:01.384Z,100425.17
2019-03-24T16:22:32.970Z,100423.42
2019-03-24T16:25:04.752Z,100421.53
2019-03-24T16:27:36.451Z,100422.72
2019-03-24T16:30:08.616Z,100429.23
2019-03-24T16:32:40.699Z,100431.81
2019-03-24T16:35:12.313Z,100431.81
2019-03-24T16:37:43.713Z,100438.13
2019-03-24T16:40:15.105Z,100438.00
2019-03-24T16:42:46.774Z,100437.78
2019-03-24T16:45:18.337Z,100442.30
2019-03-24T16:47:50.183Z,100449.33
2019-03-24T16:50:21.727Z,100441.48
2019-03-24T16:52:53.067Z,100442.94
2019-03-24T16:55:24.375Z,100439.47
2019-03-24T16:57:55.707Z,100439.81
2019-03-24T17:00:27.397Z,100439.47
2019-03-24T17:02:58.807Z,100438.75
2019-03-24T17:05:30.138Z,100444.07
2019-03-24T17:08:01.691Z,100435.78
2019-03-24T17:10:33.540Z,100438.23
2019-03-24T17:13:05.381Z,100440.27
2019-03-24T17:15:36.989Z,100440.10
2019-03-24T17:21:11.301Z,100446.39
2019-03-24T17:23:43.102Z,100443.65
2019-03-24T17:26:14.657Z,100440.44
2019-03-24T17:28:47.099Z,100442.34
2019-03-24T17:31:19.004Z,100447.05
2019-03-24T17:33:50.779Z,100446.82
2019-03-24T17:36:22.601Z,100446.20
2019-03-24T17:38:54.649Z,100449.03
2019-03-24T17:41:26.742Z,100459.00
2019-03-24T17:44:03.349Z,100457.05
2019-03-24T17:46:32.433Z,100457.50
2019-03-24T17:49:03.899Z,100447.89
2019-03-24T17:51:35.264Z,100458.09
2019-03-24T17:54:06.685Z,100461.48
2019-03-24T17:56:38.149Z,100459.61
2019-03-24T17:59:09.742Z,100458.27
2019-03-24T18:01:41.070Z,100454.56
2019-03-24T18:04:12.379Z,100453.44
2019-03-24T18:06:43.691Z,100461.31
2019-03-24T18:09:15.509Z,100458.30
2019-03-24T18:11:47.063Z,100454.98
2019-03-24T18:14:18.366Z,100459.67
2019-03-24T18:16:50.202Z,100460.41
2019-03-24T18:19:21.791Z,100471.21
2019-03-24T18:21:53.116Z,100465.48
2019-03-24T18:24:24.882Z,100467.75
2019-03-24T18:26:56.211Z,100456.84
2019-03-24T18:29:28.027Z,100467.17
2019-03-24T18:31:59.703Z,100469.16
2019-03-24T18:34:31.218Z,100463.33
2019-03-24T18:37:03.423Z,100467.98
2019-03-24T18:39:36.088Z,100463.37
2019-03-24T18:42:07.839Z,100466.05
2019-03-24T18:44:39.470Z,100462.98
2019-03-24T18:47:11.091Z,100465.61
2019-03-24T18:49:42.539Z,100466.14
2019-03-24T18:52:22.311Z,100468.00
2019-03-24T18:54:47.437Z,100463.09
2019-03-24T18:57:19.306Z,100460.20
2019-03-24T18:59:50.707Z,100461.14
2019-03-24T19:02:22.936Z,100456.76
2019-03-24T19:04:54.603Z,100454.53
2019-03-24T19:07:26.012Z,100460.22
2019-03-24T19:09:58.122Z,100456.75
2019-03-24T19:12:29.576Z,100453.08
2019-03-24T19:15:00.990Z,100460.58
2019-03-24T19:17:32.780Z,100457.92
2019-03-24T19:20:04.978Z,100454.77
2019-03-24T19:22:37.671Z,100451.02
2019-03-24T19:25:09.331Z,100453.95
2019-03-24T19:27:40.872Z,100457.24
2019-03-24T19:30:12.913Z,100454.77
2019-03-24T19:32:44.350Z,100463.39
2019-03-24T19:35:17.024Z,100465.94
2019-03-24T19:37:48.330Z,100464.75
2019-03-24T19:40:27.475Z,100462.49
2019-03-24T19:42:59.118Z,100467.55
2019-03-24T19:45:30.541Z,100464.83
2019-03-24T19:48:01.997Z,100465.23
2019-03-24T19:50:33.595Z,100459.92
2019-03-24T19:53:05.363Z,100463.26
2019-03-24T19:55:36.867Z,100465.74
2019-03-24T19:58:08.329Z,100464.55
2019-03-24T20:00:39.951Z,100467.91
2019-03-24T20:03:11.415Z,100478.48
2019-03-24T20:05:43.040Z,100478.64
2019-03-24T20:08:14.483Z,100477.00
2019-03-24T20:10:45.854Z,100479.94
2019-03-24T20:13:17.448Z,100483.14
2019-03-24T20:15:49.020Z,100475.22
2019-03-24T20:18:20.315Z,100478.13
2019-03-24T20:20:52.237Z,100480.33
2019-03-24T20:23:23.812Z,100479.19
2019-03-24T20:25:55.163Z,100480.41
2019-03-24T20:28:26.879Z,100479.05
2019-03-24T20:30:58.334Z,100484.06
2019-03-24T20:33:32.449Z,100489.55
2019-03-24T20:36:03.323Z,100487.80
2019-03-24T20:38:34.936Z,100490.23
2019-03-24T20:41:06.795Z,100477.25
2019-03-24T20:43:38.103Z,100488.44
2019-03-24T20:46:09.706Z,100480.15
2019-03-24T20:48:41.239Z,100486.97
2019-03-24T20:51:12.603Z,100482.34
2019-03-24T20:53:43.914Z,100478.08
2019-03-24T20:56:15.222Z,100482.95
2019-03-24T20:58:46.995Z,100481.52
2019-03-24T21:01:18.896Z,100479.20
2019-03-24T21:03:50.197Z,100485.22
2019-03-24T21:06:21.477Z,100472.22
2019-03-24T21:08:53.070Z,100473.81
2019-03-24T21:11:26.206Z,100469.84
2019-03-24T21:13:57.585Z,100469.30
2019-03-24T21:16:29.108Z,100471.89
2019-03-24T21:19:00.717Z,100470.53
2019-03-24T21:21:32.005Z,100473.65
2019-03-24T21:24:03.531Z,100469.02
2019-03-24T21:26:35.060Z,100459.83
2019-03-24T21:29:06.587Z,100457.70
2019-03-24T21:31:38.254Z,100465.45
2019-03-24T21:34:09.786Z,100460.69
2019-03-24T21:36:41.160Z,100461.77
2019-03-24T21:39:12.538Z,100456.70
2019-03-24T21:41:44.383Z,100456.98
2019-03-24T21:44:15.927Z,100451.17
2019-03-24T21:46:47.304Z,100456.78
2019-03-24T21:49:18.836Z,100454.85
2019-03-24T21:51:50.133Z,100459.67
2019-03-24T21:54:21.441Z,100458.61
2019-03-24T21:56:53.000Z,100456.03
2019-03-24T21:59:24.815Z,100452.82
2019-03-24T22:01:56.282Z,100451.27
2019-03-24T22:04:28.055Z,100454.64
2019-03-24T22:07:00.069Z,100456.52
2019-03-24T22:09:31.619Z,100453.18
2019-03-24T22:12:03.992Z,100460.72
2019-03-24T22:14:35.436Z,100458.55
2019-03-24T22:17:07.105Z,100459.97
2019-03-24T22:19:38.823Z,100456.81
2019-03-24T22:22:10.332Z,100452.68
2019-03-24T22:24:41.644Z,100455.39
2019-03-24T22:27:13.442Z,100452.23
2019-03-24T22:29:44.977Z,100458.66
2019-03-24T22:32:16.487Z,100461.91
2019-03-24T22:34:48.027Z,100457.90
2019-03-24T22:37:19.543Z,100451.06
2019-03-24T22:39:51.095Z,100454.91
2019-03-24T22:42:22.380Z,100455.53
2019-03-24T22:44:53.674Z,100458.36
2019-03-24T22:47:24.986Z,100458.97
2019-03-24T22:49:56.287Z,100456.92
2019-03-24T22:52:27.915Z,100454.96
2019-03-24T22:54:59.702Z,100456.61
2019-03-24T22:57:32.694Z,100449.41
2019-03-24T23:00:04.820Z,100446.45
2019-03-24T23:02:37.218Z,100443.59
2019-03-24T23:05:08.636Z,100437.99
2019-03-24T23:07:39.935Z,100440.29
2019-03-24T23:10:11.675Z,100440.58
2019-03-24T23:12:43.266Z,100436.52
2019-03-24T23:15:14.639Z,100438.25
2019-03-24T23:17:46.012Z,100438.29
2019-03-24T23:20:36.268Z,100429.05
2019-03-24T23:23:07.638Z,100432.17
2019-03-24T23:25:39.111Z,100429.45
2019-03-24T23:28:10.475Z,100427.91
2019-03-24T23:30:42.088Z,100424.94
2019-03-24T23:33:13.446Z,100431.27
2019-03-24T23:35:45.097Z,100424.60
2019-03-24T23:38:16.616Z,100424.53
2019-03-24T23:40:48.259Z,100425.05
2019-03-24T23:43:19.807Z,100425.53
2019-03-24T23:45:51.275Z,100424.77
2019-03-24T23:48:23.716Z,100424.56
2019-03-24T23:50:55.333Z,100423.37
2019-03-24T23:53:26.880Z,100417.18
2019-03-24T23:55:58.184Z,100412.44
2019-03-24T23:58:40.379Z,100418.80
